createdAt,value
2023-05-19T00:02:29.347Z,1008.60
2023-05-19T00:07:29.224Z,1008.56
2023-05-19T00:12:29.164Z,1008.56
2023-05-19T00:17:29.100Z,1008.53
2023-05-19T00:22:29.041Z,1008.49
2023-05-19T00:27:28.952Z,1008.40
2023-05-19T00:32:28.929Z,1008.43
2023-05-19T00:37:28.829Z,1008.39
2023-05-19T00:42:28.790Z,1008.25
2023-05-19T00:47:28.715Z,1008.34
2023-05-19T00:52:28.630Z,1008.34
2023-05-19T00:57:28.564Z,1008.24
2023-05-19T01:02:28.623Z,1008.25
2023-05-19T01:07:28.445Z,1008.24
2023-05-19T01:12:28.381Z,1008.19
2023-05-19T01:17:28.347Z,1008.19
2023-05-19T01:22:28.246Z,1008.18
2023-05-19T01:27:28.168Z,1008.15
2023-05-19T01:32:28.148Z,1008.18
2023-05-19T01:37:28.045Z,1008.18
2023-05-19T01:42:28.013Z,1008.19
2023-05-19T01:47:27.960Z,1008.25
2023-05-19T01:52:27.884Z,1008.32
2023-05-19T01:57:27.784Z,1008.23
2023-05-19T02:02:27.756Z,1008.22
2023-05-19T02:07:27.663Z,1008.24
2023-05-19T02:12:27.613Z,1008.16
2023-05-19T02:17:27.590Z,1008.20
2023-05-19T02:22:27.472Z,1008.17
2023-05-19T02:27:27.385Z,1008.14
2023-05-19T02:32:27.461Z,1008.18
2023-05-19T02:37:27.264Z,1008.18
2023-05-19T02:42:27.214Z,1008.23
2023-05-19T02:47:27.156Z,1008.15
2023-05-19T02:52:27.070Z,1008.07
2023-05-19T02:57:27.000Z,1008.10
2023-05-19T03:02:27.096Z,1008.15
2023-05-19T03:07:26.862Z,1008.08
2023-05-19T03:12:26.814Z,1007.99
2023-05-19T03:17:26.852Z,1007.97
2023-05-19T03:22:26.673Z,1008.03
2023-05-19T03:27:26.627Z,1007.98
2023-05-19T03:32:26.666Z,1007.99
2023-05-19T03:37:26.470Z,1008.09
2023-05-19T03:42:26.433Z,1008.13
2023-05-19T03:47:26.377Z,1008.09
2023-05-19T03:52:26.273Z,1008.17
2023-05-19T03:57:26.210Z,1008.24
2023-05-19T04:02:26.205Z,1008.25
2023-05-19T04:07:26.087Z,1008.23
2023-05-19T04:12:26.009Z,1008.25
2023-05-19T04:17:25.973Z,1008.20
2023-05-19T04:22:25.873Z,1008.16
2023-05-19T04:27:25.825Z,1008.13
2023-05-19T04:32:25.812Z,1008.20
2023-05-19T04:37:25.686Z,1008.27
2023-05-19T04:42:25.625Z,1008.21
2023-05-19T04:47:25.587Z,1008.23
2023-05-19T04:52:25.495Z,1008.24
2023-05-19T04:57:25.404Z,1008.28
2023-05-19T05:02:25.448Z,1008.29
2023-05-19T05:07:25.277Z,1008.31
2023-05-19T05:12:25.242Z,1008.33
2023-05-19T05:17:25.168Z,1008.32
2023-05-19T05:22:25.094Z,1008.30
2023-05-19T05:27:25.007Z,1008.34
2023-05-19T05:32:25.069Z,1008.36
2023-05-19T05:37:24.876Z,1008.35
2023-05-19T05:42:24.848Z,1008.40
2023-05-19T05:47:24.752Z,1008.31
2023-05-19T05:52:24.690Z,1008.35
2023-05-19T05:57:24.654Z,1008.40
2023-05-19T06:02:24.638Z,1008.43
2023-05-19T06:07:24.559Z,1008.40
2023-05-19T06:12:24.449Z,1008.40
2023-05-19T06:17:24.396Z,1008.34
2023-05-19T06:22:24.328Z,1008.36
2023-05-19T06:27:24.236Z,1008.38
2023-05-19T06:32:24.231Z,1008.49
2023-05-19T06:37:24.100Z,1008.50
2023-05-19T06:42:24.051Z,1008.43
2023-05-19T06:47:23.989Z,1008.41
2023-05-19T06:52:23.947Z,1008.34
2023-05-19T06:57:23.828Z,1008.34
2023-05-19T07:02:23.835Z,1008.26
2023-05-19T07:07:23.848Z,1008.27
2023-05-19T07:12:23.649Z,1008.23
2023-05-19T07:17:23.852Z,1008.30
2023-05-19T07:22:23.508Z,1008.16
2023-05-19T07:27:23.443Z,1008.11
2023-05-19T07:32:23.614Z,1008.07
2023-05-19T07:37:23.314Z,1008.08
2023-05-19T07:42:23.303Z,1008.09
2023-05-19T07:47:23.172Z,1008.02
2023-05-19T07:52:23.109Z,1007.96
2023-05-19T07:57:23.060Z,1007.99
2023-05-19T08:02:23.008Z,1008.05
2023-05-19T08:07:22.926Z,1007.97
2023-05-19T08:12:22.844Z,1007.92
2023-05-19T08:17:22.858Z,1007.97
2023-05-19T08:22:22.861Z,1007.94
2023-05-19T08:27:22.679Z,1007.90
2023-05-19T08:32:22.672Z,1008.02
2023-05-19T08:37:22.543Z,1007.82
2023-05-19T08:42:22.463Z,1007.82
2023-05-19T08:47:22.434Z,1007.90
2023-05-19T08:52:22.347Z,1007.71
2023-05-19T08:57:22.277Z,1007.68
2023-05-19T09:02:22.232Z,1007.54
2023-05-19T09:07:22.153Z,1007.54
2023-05-19T09:12:22.052Z,1007.51
2023-05-19T09:17:22.081Z,1007.50
2023-05-19T09:22:21.939Z,1007.65
2023-05-19T09:27:21.876Z,1007.55
2023-05-19T09:32:21.850Z,1007.54
2023-05-19T09:37:21.758Z,1007.32
2023-05-19T09:42:21.666Z,1007.44
2023-05-19T09:47:21.661Z,1007.38
2023-05-19T09:52:21.521Z,1007.33
2023-05-19T09:57:21.483Z,1007.37
2023-05-19T10:02:21.392Z,1007.43
2023-05-19T10:07:21.346Z,1007.19
2023-05-19T10:12:21.279Z,1007.31
2023-05-19T10:17:21.206Z,1007.28
2023-05-19T10:22:21.132Z,1007.29
2023-05-19T10:27:21.110Z,1007.35
2023-05-19T10:32:21.091Z,1007.17
2023-05-19T10:37:20.932Z,1007.12
2023-05-19T10:42:20.889Z,1006.99
2023-05-19T10:47:20.865Z,1007.19
2023-05-19T10:52:20.756Z,1007.18
2023-05-19T10:57:20.700Z,1007.15
2023-05-19T11:02:20.675Z,1007.02
2023-05-19T11:07:20.567Z,1006.91
2023-05-19T11:12:20.490Z,1006.88
2023-05-19T11:17:20.429Z,1007.03
2023-05-19T11:22:20.345Z,1006.90
2023-05-19T11:27:20.312Z,1006.82
2023-05-19T11:32:20.294Z,1006.80
2023-05-19T11:37:20.168Z,1006.79
2023-05-19T11:42:20.116Z,1006.77
2023-05-19T11:47:20.015Z,1006.74
2023-05-19T11:52:19.950Z,1006.75
2023-05-19T11:57:19.880Z,1006.57
2023-05-19T12:02:19.880Z,1006.53
2023-05-19T12:07:19.763Z,1006.50
2023-05-19T12:12:19.685Z,1006.48
2023-05-19T12:17:19.619Z,1006.50
2023-05-19T12:22:19.549Z,1006.43
2023-05-19T12:27:19.488Z,1006.47
2023-05-19T12:32:19.399Z,1006.41
2023-05-19T12:37:19.347Z,1006.34
2023-05-19T12:42:19.283Z,1006.42
2023-05-19T12:47:19.209Z,1006.23
2023-05-19T12:52:19.148Z,1006.15
2023-05-19T12:57:19.092Z,1006.18
2023-05-19T13:02:19.058Z,1006.11
2023-05-19T13:07:18.952Z,1006.07
2023-05-19T13:12:18.872Z,1006.08
2023-05-19T13:17:18.813Z,1006.00
2023-05-19T13:22:18.758Z,1006.20
2023-05-19T13:27:18.705Z,1006.10
2023-05-19T13:32:18.656Z,1006.06
2023-05-19T13:37:18.611Z,1006.06
2023-05-19T13:42:18.508Z,1006.06
2023-05-19T13:47:18.581Z,1006.04
2023-05-19T13:52:18.375Z,1005.85
2023-05-19T13:57:18.307Z,1005.80
2023-05-19T14:02:18.246Z,1005.76
2023-05-19T14:07:18.176Z,1005.80
2023-05-19T14:12:18.116Z,1005.84
2023-05-19T14:17:18.072Z,1005.72
2023-05-19T14:22:18.019Z,1005.81
2023-05-19T14:27:17.930Z,1005.87
2023-05-19T14:32:17.863Z,1005.93
2023-05-19T14:37:17.801Z,1005.90
2023-05-19T14:42:17.726Z,1005.83
2023-05-19T14:47:17.675Z,1005.96
2023-05-19T14:52:17.623Z,1005.95
2023-05-19T14:57:17.556Z,1006.03
2023-05-19T15:02:17.487Z,1005.95
2023-05-19T15:07:17.412Z,1005.93
2023-05-19T15:12:17.385Z,1005.87
2023-05-19T15:17:17.339Z,1005.92
2023-05-19T15:22:17.229Z,1006.05
2023-05-19T15:27:17.203Z,1006.08
2023-05-19T15:32:17.090Z,1006.08
2023-05-19T15:37:17.052Z,1006.14
2023-05-19T15:42:16.972Z,1006.08
2023-05-19T15:47:16.946Z,1006.16
2023-05-19T15:52:16.841Z,1006.12
2023-05-19T15:57:16.795Z,1005.97
2023-05-19T16:02:16.838Z,1005.92
2023-05-19T16:07:16.663Z,1005.97
2023-05-19T16:12:16.586Z,1005.90
2023-05-19T16:17:16.529Z,1005.92
2023-05-19T16:22:16.453Z,1006.00
2023-05-19T16:27:16.381Z,1005.92
2023-05-19T16:32:16.316Z,1006.00
2023-05-19T16:37:16.258Z,1005.95
2023-05-19T16:42:16.188Z,1005.89
2023-05-19T16:47:16.128Z,1006.05
2023-05-19T16:52:16.068Z,1005.98
2023-05-19T16:57:15.997Z,1006.01
2023-05-19T17:02:15.922Z,1006.07
2023-05-19T17:07:15.962Z,1005.97
2023-05-19T17:12:15.788Z,1005.93
2023-05-19T17:17:15.787Z,1006.09
2023-05-19T17:22:15.658Z,1006.02
2023-05-19T17:27:15.598Z,1006.11
2023-05-19T17:32:15.562Z,1006.04
2023-05-19T17:37:15.454Z,1006.06
2023-05-19T17:42:15.398Z,1006.04
2023-05-19T17:47:15.340Z,1006.08
2023-05-19T17:52:15.275Z,1006.11
2023-05-19T17:57:15.208Z,1006.09
2023-05-19T18:02:15.265Z,1006.10
2023-05-19T18:07:15.070Z,1006.10
2023-05-19T18:12:14.982Z,1006.10
2023-05-19T18:17:14.950Z,1006.22
2023-05-19T18:22:14.875Z,1006.16
2023-05-19T18:27:14.821Z,1006.21
2023-05-19T18:32:14.808Z,1006.18
2023-05-19T18:37:14.692Z,1006.14
2023-05-19T18:42:14.600Z,1006.09
2023-05-19T18:47:14.550Z,1006.18
2023-05-19T18:52:14.469Z,1006.14
2023-05-19T18:57:14.416Z,1006.11
2023-05-19T19:02:14.341Z,1006.12
2023-05-19T19:07:14.284Z,1006.16
2023-05-19T19:12:14.216Z,1006.24
2023-05-19T19:17:14.326Z,1006.33
2023-05-19T19:22:14.080Z,1006.31
2023-05-19T19:27:14.037Z,1006.39
2023-05-19T19:32:13.960Z,1006.39
2023-05-19T19:37:13.904Z,1006.49
2023-05-19T19:42:13.822Z,1006.56
2023-05-19T19:47:13.790Z,1006.55
2023-05-19T19:52:13.685Z,1006.56
2023-05-19T19:57:13.640Z,1006.52
2023-05-19T20:02:13.589Z,1006.54
2023-05-19T20:07:13.494Z,1006.55
2023-05-19T20:12:13.404Z,1006.57
2023-05-19T20:17:13.360Z,1006.59
2023-05-19T20:22:13.272Z,1006.64
2023-05-19T20:27:13.226Z,1006.66
2023-05-19T20:32:13.148Z,1006.72
2023-05-19T20:37:13.076Z,1006.71
2023-05-19T20:42:13.007Z,1006.70
2023-05-19T20:47:12.967Z,1006.74
2023-05-19T20:52:12.878Z,1006.76
2023-05-19T20:57:12.808Z,1006.75
2023-05-19T21:02:12.736Z,1006.69
2023-05-19T21:07:12.686Z,1006.68
2023-05-19T21:12:12.613Z,1006.68
2023-05-19T21:17:12.603Z,1006.67
2023-05-19T21:22:12.476Z,1006.66
2023-05-19T21:27:12.416Z,1006.70
2023-05-19T21:32:12.359Z,1006.73
2023-05-19T21:37:12.300Z,1006.85
2023-05-19T21:42:12.231Z,1006.88
2023-05-19T21:47:12.144Z,1006.84
2023-05-19T21:52:12.076Z,1006.82
2023-05-19T21:57:12.011Z,1006.85
2023-05-19T22:02:12.035Z,1006.81
2023-05-19T22:07:11.899Z,1006.82
2023-05-19T22:12:11.813Z,1006.83
2023-05-19T22:17:11.750Z,1006.91
2023-05-19T22:22:14.310Z,1006.92
2023-05-19T22:27:11.640Z,1006.93
2023-05-19T22:32:11.561Z,1006.89
2023-05-19T22:37:11.504Z,1006.89
2023-05-19T22:42:11.419Z,1006.87
2023-05-19T22:47:11.370Z,1006.88
2023-05-19T22:52:11.296Z,1006.83
2023-05-19T22:57:11.241Z,1006.85
2023-05-19T23:02:11.194Z,1006.82
2023-05-19T23:07:11.121Z,1006.75
2023-05-19T23:12:11.054Z,1006.77
2023-05-19T23:17:11.094Z,1006.77
2023-05-19T23:22:11.313Z,1006.78
2023-05-19T23:27:10.858Z,1006.78
2023-05-19T23:32:10.799Z,1006.73
2023-05-19T23:37:10.725Z,1006.73
2023-05-19T23:42:10.673Z,1006.66
2023-05-19T23:47:10.664Z,1006.60
2023-05-19T23:52:10.540Z,1006.67
2023-05-19T23:57:10.476Z,1006.56
